Terminal Aerodrome Forecast
Issued by NWS

Home | Current Version | Previous Version | Text Only | Print | Product List | Glossary On
Versions: 1 2 3 4 5 6 7 8 9 10 11 12 13 14 15 16 17 18 19 20
000
FTUS43 KMPX 021120
TAFRNH
TAF
KRNH 021120Z 0212/0312 00000KT 5SM BR FEW150
      TEMPO 0212/0213 SCT150
     FM021300 VRB03KT P6SM FEW150
     FM021600 16007KT P6SM FEW050 SCT250
     FM030000 17004KT P6SM SCT250=

USA.gov is the U.S. government's official web portal to all federal, state and local government web resources and services.